Terminal Aerodrome Forecast
Issued by NWS Charleston, WV

Current Version | Previous Version | Graphics & Text | Print | Product List | Glossary On
Versions: 1 2 3 4 5 6 7 8 9 10 11 12 13 14 15 16 17 18 19 20 21
000
FTUS41 KRLX 060700 AAA
TAFCRW
TAF AMD
KCRW 060744Z 0608/0706 00000KT P6SM FEW100
     FM061000 00000KT 3SM BR FEW001 SCT100
     FM061230 00000KT 6SM BR SCT100
     FM061300 00000KT P6SM FEW100
     FM061700 32003KT P6SM SCT070
     FM070000 00000KT P6SM FEW080=

USA.gov is the U.S. government's official web portal to all federal, state and local government web resources and services.